sensor_id;sensor_type;location;lat;lon;timestamp;temperature;humidity
27534;DHT22;14973;51.460;7.008;2023-06-14T00:01:38;19.00;99.90
27534;DHT22;14973;51.460;7.008;2023-06-14T00:04:04;19.00;99.90
27534;DHT22;14973;51.460;7.008;2023-06-14T00:06:34;18.90;99.90
27534;DHT22;14973;51.460;7.008;2023-06-14T00:09:00;18.80;99.90
27534;DHT22;14973;51.460;7.008;2023-06-14T00:11:25;18.80;99.90
27534;DHT22;14973;51.460;7.008;2023-06-14T00:13:52;18.80;99.90
27534;DHT22;14973;51.460;7.008;2023-06-14T00:16:17;18.70;99.90
27534;DHT22;14973;51.460;7.008;2023-06-14T00:18:45;18.70;99.90
27534;DHT22;14973;51.460;7.008;2023-06-14T00:21:11;18.60;99.90
27534;DHT22;14973;51.460;7.008;2023-06-14T00:23:37;18.60;99.90
27534;DHT22;14973;51.460;7.008;2023-06-14T00:26:03;18.50;99.90
27534;DHT22;14973;51.460;7.008;2023-06-14T00:28:28;18.50;99.90
27534;DHT22;14973;51.460;7.008;2023-06-14T00:30:53;18.50;99.90
27534;DHT22;14973;51.460;7.008;2023-06-14T00:33:19;18.40;99.90
27534;DHT22;14973;51.460;7.008;2023-06-14T00:35:44;18.40;99.90
27534;DHT22;14973;51.460;7.008;2023-06-14T00:38:10;18.30;99.90
27534;DHT22;14973;51.460;7.008;2023-06-14T00:40:35;18.30;99.90
27534;DHT22;14973;51.460;7.008;2023-06-14T00:43:01;18.30;99.90
27534;DHT22;14973;51.460;7.008;2023-06-14T00:45:26;18.30;99.90
27534;DHT22;14973;51.460;7.008;2023-06-14T00:47:52;18.20;99.90
27534;DHT22;14973;51.460;7.008;2023-06-14T00:50:20;18.10;99.90
27534;DHT22;14973;51.460;7.008;2023-06-14T00:52:46;18.10;99.90
27534;DHT22;14973;51.460;7.008;2023-06-14T00:55:11;18.00;99.90
27534;DHT22;14973;51.460;7.008;2023-06-14T00:57:36;18.10;99.90
27534;DHT22;14973;51.460;7.008;2023-06-14T01:00:03;17.90;99.90
27534;DHT22;14973;51.460;7.008;2023-06-14T01:02:29;17.90;99.90
27534;DHT22;14973;51.460;7.008;2023-06-14T01:04:55;17.80;99.90
27534;DHT22;14973;51.460;7.008;2023-06-14T01:10:12;17.80;99.90
27534;DHT22;14973;51.460;7.008;2023-06-14T01:15:07;17.80;99.90
27534;DHT22;14973;51.460;7.008;2023-06-14T01:17:33;17.60;99.90
27534;DHT22;14973;51.460;7.008;2023-06-14T01:20:01;17.60;99.90
27534;DHT22;14973;51.460;7.008;2023-06-14T01:22:26;17.60;99.90
27534;DHT22;14973;51.460;7.008;2023-06-14T01:24:52;17.60;99.90
27534;DHT22;14973;51.460;7.008;2023-06-14T01:27:22;17.50;99.90
27534;DHT22;14973;51.460;7.008;2023-06-14T01:29:50;17.50;99.90
27534;DHT22;14973;51.460;7.008;2023-06-14T01:32:16;17.30;99.90
27534;DHT22;14973;51.460;7.008;2023-06-14T01:34:43;17.30;99.90
27534;DHT22;14973;51.460;7.008;2023-06-14T01:37:08;17.30;99.90
27534;DHT22;14973;51.460;7.008;2023-06-14T01:39:34;17.20;99.90
27534;DHT22;14973;51.460;7.008;2023-06-14T01:42:00;17.00;99.90
27534;DHT22;14973;51.460;7.008;2023-06-14T01:44:25;17.00;99.90
27534;DHT22;14973;51.460;7.008;2023-06-14T01:46:51;17.00;99.90
27534;DHT22;14973;51.460;7.008;2023-06-14T01:49:17;17.00;99.90
27534;DHT22;14973;51.460;7.008;2023-06-14T01:51:43;17.00;99.90
27534;DHT22;14973;51.460;7.008;2023-06-14T01:54:08;16.90;99.90
27534;DHT22;14973;51.460;7.008;2023-06-14T01:56:33;17.00;99.90
27534;DHT22;14973;51.460;7.008;2023-06-14T01:58:59;16.90;99.90
27534;DHT22;14973;51.460;7.008;2023-06-14T02:01:24;16.80;99.90
27534;DHT22;14973;51.460;7.008;2023-06-14T02:03:50;16.80;99.90
27534;DHT22;14973;51.460;7.008;2023-06-14T02:06:16;16.80;99.90
27534;DHT22;14973;51.460;7.008;2023-06-14T02:08:42;16.70;99.90
27534;DHT22;14973;51.460;7.008;2023-06-14T02:11:07;16.70;99.90
27534;DHT22;14973;51.460;7.008;2023-06-14T02:13:33;16.70;99.90
27534;DHT22;14973;51.460;7.008;2023-06-14T02:15:59;16.60;99.90
27534;DHT22;14973;51.460;7.008;2023-06-14T02:18:25;16.60;99.90
27534;DHT22;14973;51.460;7.008;2023-06-14T02:20:50;16.70;99.90
27534;DHT22;14973;51.460;7.008;2023-06-14T02:23:16;16.70;99.90
27534;DHT22;14973;51.460;7.008;2023-06-14T02:25:41;16.70;99.90
27534;DHT22;14973;51.460;7.008;2023-06-14T02:28:08;16.60;99.90
27534;DHT22;14973;51.460;7.008;2023-06-14T02:30:33;16.60;99.90
27534;DHT22;14973;51.460;7.008;2023-06-14T02:32:59;16.60;99.90
27534;DHT22;14973;51.460;7.008;2023-06-14T02:35:24;16.60;99.90
27534;DHT22;14973;51.460;7.008;2023-06-14T02:37:52;16.50;99.90
27534;DHT22;14973;51.460;7.008;2023-06-14T02:40:18;16.50;99.90
27534;DHT22;14973;51.460;7.008;2023-06-14T02:42:43;16.40;99.90
27534;DHT22;14973;51.460;7.008;2023-06-14T02:45:09;16.40;99.90
27534;DHT22;14973;51.460;7.008;2023-06-14T02:47:34;16.30;99.90
27534;DHT22;14973;51.460;7.008;2023-06-14T02:50:00;16.30;99.90
27534;DHT22;14973;51.460;7.008;2023-06-14T02:52:25;16.30;99.90
27534;DHT22;14973;51.460;7.008;2023-06-14T02:54:51;16.30;99.90
27534;DHT22;14973;51.460;7.008;2023-06-14T02:57:17;16.30;99.90
27534;DHT22;14973;51.460;7.008;2023-06-14T02:59:42;16.30;99.90
27534;DHT22;14973;51.460;7.008;2023-06-14T03:02:08;16.30;99.90
27534;DHT22;14973;51.460;7.008;2023-06-14T03:04:33;16.20;99.90
27534;DHT22;14973;51.460;7.008;2023-06-14T03:07:02;16.20;99.90
27534;DHT22;14973;51.460;7.008;2023-06-14T03:09:37;16.20;99.90
27534;DHT22;14973;51.460;7.008;2023-06-14T03:12:03;16.20;99.90
27534;DHT22;14973;51.460;7.008;2023-06-14T03:14:29;16.20;99.90
27534;DHT22;14973;51.460;7.008;2023-06-14T03:16:56;16.10;99.90
27534;DHT22;14973;51.460;7.008;2023-06-14T03:19:22;16.00;99.90
27534;DHT22;14973;51.460;7.008;2023-06-14T03:21:47;15.90;99.90
27534;DHT22;14973;51.460;7.008;2023-06-14T03:24:13;15.90;99.90
27534;DHT22;14973;51.460;7.008;2023-06-14T03:26:38;15.90;99.90
27534;DHT22;14973;51.460;7.008;2023-06-14T03:29:04;16.00;99.90
27534;DHT22;14973;51.460;7.008;2023-06-14T03:31:30;16.00;99.90
27534;DHT22;14973;51.460;7.008;2023-06-14T03:33:58;16.10;99.90
27534;DHT22;14973;51.460;7.008;2023-06-14T03:36:23;16.10;99.90
27534;DHT22;14973;51.460;7.008;2023-06-14T03:38:49;16.10;99.90
27534;DHT22;14973;51.460;7.008;2023-06-14T03:41:14;16.10;99.90
27534;DHT22;14973;51.460;7.008;2023-06-14T03:43:40;16.10;99.90
27534;DHT22;14973;51.460;7.008;2023-06-14T03:46:05;16.10;99.90
27534;DHT22;14973;51.460;7.008;2023-06-14T03:48:30;16.20;99.90
27534;DHT22;14973;51.460;7.008;2023-06-14T03:50:56;16.40;99.90
27534;DHT22;14973;51.460;7.008;2023-06-14T03:53:22;16.60;99.90
27534;DHT22;14973;51.460;7.008;2023-06-14T03:55:49;17.20;99.90
27534;DHT22;14973;51.460;7.008;2023-06-14T03:58:15;17.80;99.90
27534;DHT22;14973;51.460;7.008;2023-06-14T04:00:40;18.60;99.90
27534;DHT22;14973;51.460;7.008;2023-06-14T04:03:06;19.10;99.90
27534;DHT22;14973;51.460;7.008;2023-06-14T04:05:31;19.80;99.90
27534;DHT22;14973;51.460;7.008;2023-06-14T04:07:57;20.30;99.90
27534;DHT22;14973;51.460;7.008;2023-06-14T04:10:25;21.00;99.90
27534;DHT22;14973;51.460;7.008;2023-06-14T04:12:51;21.60;99.90
27534;DHT22;14973;51.460;7.008;2023-06-14T04:15:17;22.10;99.90
27534;DHT22;14973;51.460;7.008;2023-06-14T04:17:42;23.00;99.90
27534;DHT22;14973;51.460;7.008;2023-06-14T04:20:08;23.70;99.90
27534;DHT22;14973;51.460;7.008;2023-06-14T04:22:35;24.30;99.90
27534;DHT22;14973;51.460;7.008;2023-06-14T04:25:01;24.70;99.90
27534;DHT22;14973;51.460;7.008;2023-06-14T04:27:27;24.70;99.90
27534;DHT22;14973;51.460;7.008;2023-06-14T04:29:54;25.20;99.90
27534;DHT22;14973;51.460;7.008;2023-06-14T04:32:25;25.50;99.90
27534;DHT22;14973;51.460;7.008;2023-06-14T04:34:54;26.10;99.90
27534;DHT22;14973;51.460;7.008;2023-06-14T04:37:23;27.30;99.90
27534;DHT22;14973;51.460;7.008;2023-06-14T04:39:48;28.20;99.90
27534;DHT22;14973;51.460;7.008;2023-06-14T04:42:15;28.60;99.90
27534;DHT22;14973;51.460;7.008;2023-06-14T04:44:41;29.30;99.90
27534;DHT22;14973;51.460;7.008;2023-06-14T04:47:07;29.80;99.90
27534;DHT22;14973;51.460;7.008;2023-06-14T04:49:32;30.50;99.90
27534;DHT22;14973;51.460;7.008;2023-06-14T04:51:59;30.10;99.90
27534;DHT22;14973;51.460;7.008;2023-06-14T04:54:26;30.80;99.90
27534;DHT22;14973;51.460;7.008;2023-06-14T04:56:52;31.40;99.90
27534;DHT22;14973;51.460;7.008;2023-06-14T04:59:18;31.40;99.90
27534;DHT22;14973;51.460;7.008;2023-06-14T05:01:44;31.90;99.90
27534;DHT22;14973;51.460;7.008;2023-06-14T05:04:14;32.80;99.90
27534;DHT22;14973;51.460;7.008;2023-06-14T05:06:42;33.00;99.90
27534;DHT22;14973;51.460;7.008;2023-06-14T05:09:13;33.80;99.90
27534;DHT22;14973;51.460;7.008;2023-06-14T05:11:38;33.80;99.90
27534;DHT22;14973;51.460;7.008;2023-06-14T05:14:04;34.30;99.90
27534;DHT22;14973;51.460;7.008;2023-06-14T05:16:29;34.80;99.90
27534;DHT22;14973;51.460;7.008;2023-06-14T05:18:55;34.00;99.90
27534;DHT22;14973;51.460;7.008;2023-06-14T05:21:20;32.80;99.90
27534;DHT22;14973;51.460;7.008;2023-06-14T05:23:46;32.50;99.90
27534;DHT22;14973;51.460;7.008;2023-06-14T05:26:11;31.30;99.90
27534;DHT22;14973;51.460;7.008;2023-06-14T05:28:37;31.20;99.90
27534;DHT22;14973;51.460;7.008;2023-06-14T05:31:02;32.20;99.90
27534;DHT22;14973;51.460;7.008;2023-06-14T05:33:28;32.70;99.90
27534;DHT22;14973;51.460;7.008;2023-06-14T05:35:53;32.80;99.90
27534;DHT22;14973;51.460;7.008;2023-06-14T05:38:19;31.90;99.90
27534;DHT22;14973;51.460;7.008;2023-06-14T05:40:44;32.30;99.90
27534;DHT22;14973;51.460;7.008;2023-06-14T05:43:10;31.90;99.90
27534;DHT22;14973;51.460;7.008;2023-06-14T05:45:35;31.90;99.90
27534;DHT22;14973;51.460;7.008;2023-06-14T05:48:01;32.70;99.90
27534;DHT22;14973;51.460;7.008;2023-06-14T05:50:26;32.50;99.90
27534;DHT22;14973;51.460;7.008;2023-06-14T05:52:53;32.40;99.90
27534;DHT22;14973;51.460;7.008;2023-06-14T05:55:18;32.20;99.90
27534;DHT22;14973;51.460;7.008;2023-06-14T05:57:44;31.60;99.90
27534;DHT22;14973;51.460;7.008;2023-06-14T06:00:09;31.50;99.90
27534;DHT22;14973;51.460;7.008;2023-06-14T06:02:42;31.90;99.90
27534;DHT22;14973;51.460;7.008;2023-06-14T06:05:09;32.30;99.90
27534;DHT22;14973;51.460;7.008;2023-06-14T06:07:34;32.60;99.90
27534;DHT22;14973;51.460;7.008;2023-06-14T06:09:59;32.70;99.90
27534;DHT22;14973;51.460;7.008;2023-06-14T06:12:25;33.10;99.90
27534;DHT22;14973;51.460;7.008;2023-06-14T06:14:50;30.50;99.90
27534;DHT22;14973;51.460;7.008;2023-06-14T06:17:16;30.80;99.90
27534;DHT22;14973;51.460;7.008;2023-06-14T06:19:41;30.00;99.90
27534;DHT22;14973;51.460;7.008;2023-06-14T06:22:07;29.70;99.90
27534;DHT22;14973;51.460;7.008;2023-06-14T06:24:33;29.30;99.90
27534;DHT22;14973;51.460;7.008;2023-06-14T06:26:58;30.00;99.90
27534;DHT22;14973;51.460;7.008;2023-06-14T06:29:24;32.60;99.90
27534;DHT22;14973;51.460;7.008;2023-06-14T06:31:49;34.00;99.90
27534;DHT22;14973;51.460;7.008;2023-06-14T06:34:15;35.50;99.90
27534;DHT22;14973;51.460;7.008;2023-06-14T06:36:40;34.00;99.90
27534;DHT22;14973;51.460;7.008;2023-06-14T06:39:07;33.50;99.90
27534;DHT22;14973;51.460;7.008;2023-06-14T06:41:36;30.90;99.90
27534;DHT22;14973;51.460;7.008;2023-06-14T06:44:02;29.80;99.90
27534;DHT22;14973;51.460;7.008;2023-06-14T06:46:28;30.50;99.90
27534;DHT22;14973;51.460;7.008;2023-06-14T06:48:53;30.90;99.90
27534;DHT22;14973;51.460;7.008;2023-06-14T06:51:19;30.40;99.90
27534;DHT22;14973;51.460;7.008;2023-06-14T06:53:51;29.30;99.90
27534;DHT22;14973;51.460;7.008;2023-06-14T06:56:17;28.70;99.90
27534;DHT22;14973;51.460;7.008;2023-06-14T06:58:42;29.30;99.90
27534;DHT22;14973;51.460;7.008;2023-06-14T07:01:08;29.80;99.90
27534;DHT22;14973;51.460;7.008;2023-06-14T07:03:34;30.80;99.90
27534;DHT22;14973;51.460;7.008;2023-06-14T07:06:00;31.90;99.90
27534;DHT22;14973;51.460;7.008;2023-06-14T07:08:26;33.10;99.90
27534;DHT22;14973;51.460;7.008;2023-06-14T07:10:52;34.30;99.90
27534;DHT22;14973;51.460;7.008;2023-06-14T07:13:17;33.90;99.90
27534;DHT22;14973;51.460;7.008;2023-06-14T07:15:43;35.20;99.90
27534;DHT22;14973;51.460;7.008;2023-06-14T07:18:08;35.00;99.90
27534;DHT22;14973;51.460;7.008;2023-06-14T07:20:34;32.40;99.90
27534;DHT22;14973;51.460;7.008;2023-06-14T07:22:59;30.00;99.90
27534;DHT22;14973;51.460;7.008;2023-06-14T07:25:25;29.50;99.90
27534;DHT22;14973;51.460;7.008;2023-06-14T07:27:51;29.60;99.90
27534;DHT22;14973;51.460;7.008;2023-06-14T07:30:16;31.60;99.90
27534;DHT22;14973;51.460;7.008;2023-06-14T07:32:42;32.60;99.90
27534;DHT22;14973;51.460;7.008;2023-06-14T07:35:08;31.40;99.90
27534;DHT22;14973;51.460;7.008;2023-06-14T07:37:33;31.30;99.90
27534;DHT22;14973;51.460;7.008;2023-06-14T07:39:59;31.90;99.90
27534;DHT22;14973;51.460;7.008;2023-06-14T07:42:24;32.40;99.90
27534;DHT22;14973;51.460;7.008;2023-06-14T07:44:50;31.50;99.90
27534;DHT22;14973;51.460;7.008;2023-06-14T07:47:17;30.80;99.90
27534;DHT22;14973;51.460;7.008;2023-06-14T07:49:42;30.20;99.90
27534;DHT22;14973;51.460;7.008;2023-06-14T07:52:08;30.80;99.90
27534;DHT22;14973;51.460;7.008;2023-06-14T07:54:33;29.40;99.90
27534;DHT22;14973;51.460;7.008;2023-06-14T07:56:59;29.90;99.90
27534;DHT22;14973;51.460;7.008;2023-06-14T07:59:26;30.80;99.90
27534;DHT22;14973;51.460;7.008;2023-06-14T08:01:51;32.00;99.90
27534;DHT22;14973;51.460;7.008;2023-06-14T08:04:17;31.80;99.90
27534;DHT22;14973;51.460;7.008;2023-06-14T08:06:42;32.60;99.90
27534;DHT22;14973;51.460;7.008;2023-06-14T08:09:11;33.30;99.90
27534;DHT22;14973;51.460;7.008;2023-06-14T08:11:37;31.40;99.90
27534;DHT22;14973;51.460;7.008;2023-06-14T08:14:03;29.80;99.90
27534;DHT22;14973;51.460;7.008;2023-06-14T08:16:29;30.40;99.90
27534;DHT22;14973;51.460;7.008;2023-06-14T08:18:55;31.20;99.90
27534;DHT22;14973;51.460;7.008;2023-06-14T08:21:20;30.90;99.90
27534;DHT22;14973;51.460;7.008;2023-06-14T08:23:46;30.90;99.90
27534;DHT22;14973;51.460;7.008;2023-06-14T08:26:11;31.10;99.90
27534;DHT22;14973;51.460;7.008;2023-06-14T08:28:37;30.70;99.90
27534;DHT22;14973;51.460;7.008;2023-06-14T08:31:02;31.70;99.90
27534;DHT22;14973;51.460;7.008;2023-06-14T08:33:28;31.80;99.90
27534;DHT22;14973;51.460;7.008;2023-06-14T08:35:53;31.90;99.90
27534;DHT22;14973;51.460;7.008;2023-06-14T08:38:18;30.10;99.90
27534;DHT22;14973;51.460;7.008;2023-06-14T08:40:45;28.70;99.90
27534;DHT22;14973;51.460;7.008;2023-06-14T08:43:13;28.90;99.90
27534;DHT22;14973;51.460;7.008;2023-06-14T08:45:38;29.40;99.90
27534;DHT22;14973;51.460;7.008;2023-06-14T08:48:04;30.10;99.90
27534;DHT22;14973;51.460;7.008;2023-06-14T08:50:31;30.10;99.90
27534;DHT22;14973;51.460;7.008;2023-06-14T08:52:57;30.00;99.90
27534;DHT22;14973;51.460;7.008;2023-06-14T08:55:27;30.40;99.90
27534;DHT22;14973;51.460;7.008;2023-06-14T08:57:57;28.90;99.90
27534;DHT22;14973;51.460;7.008;2023-06-14T09:00:26;28.80;99.90
27534;DHT22;14973;51.460;7.008;2023-06-14T09:02:53;28.80;99.90
27534;DHT22;14973;51.460;7.008;2023-06-14T09:05:25;28.40;99.90
27534;DHT22;14973;51.460;7.008;2023-06-14T09:07:51;30.10;99.90
27534;DHT22;14973;51.460;7.008;2023-06-14T09:10:17;30.60;99.90
27534;DHT22;14973;51.460;7.008;2023-06-14T09:12:43;31.30;99.90
27534;DHT22;14973;51.460;7.008;2023-06-14T09:15:09;31.30;99.90
27534;DHT22;14973;51.460;7.008;2023-06-14T09:17:35;32.20;99.90
27534;DHT22;14973;51.460;7.008;2023-06-14T09:20:01;31.10;99.90
27534;DHT22;14973;51.460;7.008;2023-06-14T09:22:30;31.30;99.90
27534;DHT22;14973;51.460;7.008;2023-06-14T09:24:56;29.60;99.90
27534;DHT22;14973;51.460;7.008;2023-06-14T09:27:21;28.60;99.90
27534;DHT22;14973;51.460;7.008;2023-06-14T09:29:47;29.40;99.90
27534;DHT22;14973;51.460;7.008;2023-06-14T09:32:12;30.30;99.90
27534;DHT22;14973;51.460;7.008;2023-06-14T09:34:38;30.80;99.90
27534;DHT22;14973;51.460;7.008;2023-06-14T09:37:03;29.80;99.90
27534;DHT22;14973;51.460;7.008;2023-06-14T09:39:29;29.80;99.90
27534;DHT22;14973;51.460;7.008;2023-06-14T09:41:55;30.30;99.90
27534;DHT22;14973;51.460;7.008;2023-06-14T09:44:20;31.10;99.90
27534;DHT22;14973;51.460;7.008;2023-06-14T09:46:47;31.60;99.90
27534;DHT22;14973;51.460;7.008;2023-06-14T09:49:13;32.00;99.90
27534;DHT22;14973;51.460;7.008;2023-06-14T09:51:42;31.40;99.90
27534;DHT22;14973;51.460;7.008;2023-06-14T09:54:08;29.90;99.90
27534;DHT22;14973;51.460;7.008;2023-06-14T09:56:37;28.50;99.90
27534;DHT22;14973;51.460;7.008;2023-06-14T09:59:05;28.60;99.90
27534;DHT22;14973;51.460;7.008;2023-06-14T10:01:32;28.90;99.90
27534;DHT22;14973;51.460;7.008;2023-06-14T10:04:00;29.50;99.90
27534;DHT22;14973;51.460;7.008;2023-06-14T10:06:27;28.90;99.90
27534;DHT22;14973;51.460;7.008;2023-06-14T10:08:54;27.30;99.90
27534;DHT22;14973;51.460;7.008;2023-06-14T10:11:21;26.00;99.90
27534;DHT22;14973;51.460;7.008;2023-06-14T10:13:47;25.50;99.90
27534;DHT22;14973;51.460;7.008;2023-06-14T10:16:17;24.70;99.90
27534;DHT22;14973;51.460;7.008;2023-06-14T10:18:48;24.30;99.90
27534;DHT22;14973;51.460;7.008;2023-06-14T10:21:27;24.20;99.90
27534;DHT22;14973;51.460;7.008;2023-06-14T10:23:54;24.80;99.90
27534;DHT22;14973;51.460;7.008;2023-06-14T10:26:22;24.70;99.90
27534;DHT22;14973;51.460;7.008;2023-06-14T10:31:42;25.00;99.90
27534;DHT22;14973;51.460;7.008;2023-06-14T10:34:08;24.20;99.90
27534;DHT22;14973;51.460;7.008;2023-06-14T10:36:34;23.80;99.90
27534;DHT22;14973;51.460;7.008;2023-06-14T10:39:01;23.70;99.90
27534;DHT22;14973;51.460;7.008;2023-06-14T10:41:29;23.50;99.90
27534;DHT22;14973;51.460;7.008;2023-06-14T10:47:00;23.10;99.90
27534;DHT22;14973;51.460;7.008;2023-06-14T10:49:44;23.50;99.90
27534;DHT22;14973;51.460;7.008;2023-06-14T10:52:11;23.40;99.90
27534;DHT22;14973;51.460;7.008;2023-06-14T10:57:26;24.10;99.90
27534;DHT22;14973;51.460;7.008;2023-06-14T10:59:51;24.50;99.90
27534;DHT22;14973;51.460;7.008;2023-06-14T11:05:04;24.50;99.90
27534;DHT22;14973;51.460;7.008;2023-06-14T11:10:10;24.00;99.90
27534;DHT22;14973;51.460;7.008;2023-06-14T11:12:41;23.70;99.90
27534;DHT22;14973;51.460;7.008;2023-06-14T11:15:07;23.80;99.90
27534;DHT22;14973;51.460;7.008;2023-06-14T11:17:33;23.20;99.90
27534;DHT22;14973;51.460;7.008;2023-06-14T11:20:11;22.90;99.90
27534;DHT22;14973;51.460;7.008;2023-06-14T11:22:44;23.00;99.90
27534;DHT22;14973;51.460;7.008;2023-06-14T11:25:11;23.20;99.90
27534;DHT22;14973;51.460;7.008;2023-06-14T11:27:36;23.50;99.90
27534;DHT22;14973;51.460;7.008;2023-06-14T11:30:02;23.60;99.90
27534;DHT22;14973;51.460;7.008;2023-06-14T11:32:27;23.90;99.90
27534;DHT22;14973;51.460;7.008;2023-06-14T11:34:53;23.90;99.90
27534;DHT22;14973;51.460;7.008;2023-06-14T11:37:18;23.10;99.90
27534;DHT22;14973;51.460;7.008;2023-06-14T11:39:44;22.80;99.90
27534;DHT22;14973;51.460;7.008;2023-06-14T11:42:16;23.00;99.90
27534;DHT22;14973;51.460;7.008;2023-06-14T11:44:42;23.30;99.90
27534;DHT22;14973;51.460;7.008;2023-06-14T11:47:07;22.80;99.90
27534;DHT22;14973;51.460;7.008;2023-06-14T11:49:36;23.00;99.90
27534;DHT22;14973;51.460;7.008;2023-06-14T11:52:01;23.20;99.90
27534;DHT22;14973;51.460;7.008;2023-06-14T11:54:27;23.20;99.90
27534;DHT22;14973;51.460;7.008;2023-06-14T11:56:52;23.40;99.90
27534;DHT22;14973;51.460;7.008;2023-06-14T11:59:18;22.90;99.90
27534;DHT22;14973;51.460;7.008;2023-06-14T12:01:43;23.10;99.90
27534;DHT22;14973;51.460;7.008;2023-06-14T12:04:09;23.30;99.90
27534;DHT22;14973;51.460;7.008;2023-06-14T12:06:34;23.70;99.90
27534;DHT22;14973;51.460;7.008;2023-06-14T12:09:07;23.90;99.90
27534;DHT22;14973;51.460;7.008;2023-06-14T12:11:38;24.00;99.90
27534;DHT22;14973;51.460;7.008;2023-06-14T12:14:07;24.00;99.90
27534;DHT22;14973;51.460;7.008;2023-06-14T12:16:33;24.30;99.90
27534;DHT22;14973;51.460;7.008;2023-06-14T12:19:12;24.30;99.90
27534;DHT22;14973;51.460;7.008;2023-06-14T12:21:38;24.10;99.90
27534;DHT22;14973;51.460;7.008;2023-06-14T12:24:05;23.70;99.90
27534;DHT22;14973;51.460;7.008;2023-06-14T12:26:32;23.70;99.90
27534;DHT22;14973;51.460;7.008;2023-06-14T12:28:57;23.90;99.90
27534;DHT22;14973;51.460;7.008;2023-06-14T12:31:23;24.30;99.90
27534;DHT22;14973;51.460;7.008;2023-06-14T12:33:49;24.30;99.90
27534;DHT22;14973;51.460;7.008;2023-06-14T12:36:15;24.40;99.90
27534;DHT22;14973;51.460;7.008;2023-06-14T12:38:41;24.40;99.90
27534;DHT22;14973;51.460;7.008;2023-06-14T12:41:06;24.60;99.90
27534;DHT22;14973;51.460;7.008;2023-06-14T12:43:33;24.90;99.90
27534;DHT22;14973;51.460;7.008;2023-06-14T12:45:58;25.10;99.90
27534;DHT22;14973;51.460;7.008;2023-06-14T12:48:24;25.00;99.90
27534;DHT22;14973;51.460;7.008;2023-06-14T12:50:49;25.00;99.90
27534;DHT22;14973;51.460;7.008;2023-06-14T12:53:15;25.10;99.90
27534;DHT22;14973;51.460;7.008;2023-06-14T12:55:40;25.10;99.90
27534;DHT22;14973;51.460;7.008;2023-06-14T12:58:06;25.20;99.90
27534;DHT22;14973;51.460;7.008;2023-06-14T13:00:31;25.30;99.90
27534;DHT22;14973;51.460;7.008;2023-06-14T13:02:58;25.40;99.90
27534;DHT22;14973;51.460;7.008;2023-06-14T13:05:24;25.20;99.90
27534;DHT22;14973;51.460;7.008;2023-06-14T13:07:49;24.90;99.90
27534;DHT22;14973;51.460;7.008;2023-06-14T13:10:15;24.50;99.90
27534;DHT22;14973;51.460;7.008;2023-06-14T13:12:41;24.70;99.90
27534;DHT22;14973;51.460;7.008;2023-06-14T13:15:07;25.00;99.90
27534;DHT22;14973;51.460;7.008;2023-06-14T13:17:33;24.60;99.90
27534;DHT22;14973;51.460;7.008;2023-06-14T13:20:06;24.30;99.90
27534;DHT22;14973;51.460;7.008;2023-06-14T13:22:33;24.00;99.90
27534;DHT22;14973;51.460;7.008;2023-06-14T13:24:59;23.90;99.90
27534;DHT22;14973;51.460;7.008;2023-06-14T13:27:25;24.20;99.90
27534;DHT22;14973;51.460;7.008;2023-06-14T13:29:50;24.20;99.90
27534;DHT22;14973;51.460;7.008;2023-06-14T13:32:16;24.00;99.90
27534;DHT22;14973;51.460;7.008;2023-06-14T13:34:41;23.80;99.90
27534;DHT22;14973;51.460;7.008;2023-06-14T13:37:07;23.90;99.90
27534;DHT22;14973;51.460;7.008;2023-06-14T13:39:32;24.10;99.90
27534;DHT22;14973;51.460;7.008;2023-06-14T13:41:58;24.20;99.90
27534;DHT22;14973;51.460;7.008;2023-06-14T13:44:23;24.40;99.90
27534;DHT22;14973;51.460;7.008;2023-06-14T13:46:50;24.30;99.90
27534;DHT22;14973;51.460;7.008;2023-06-14T13:49:16;24.40;99.90
27534;DHT22;14973;51.460;7.008;2023-06-14T13:51:41;24.40;99.90
27534;DHT22;14973;51.460;7.008;2023-06-14T13:54:07;24.50;99.90
27534;DHT22;14973;51.460;7.008;2023-06-14T13:56:32;24.60;99.90
27534;DHT22;14973;51.460;7.008;2023-06-14T13:58:58;24.50;99.90
27534;DHT22;14973;51.460;7.008;2023-06-14T14:01:24;24.40;99.90
27534;DHT22;14973;51.460;7.008;2023-06-14T14:03:51;24.70;99.90
27534;DHT22;14973;51.460;7.008;2023-06-14T14:06:17;24.60;99.90
27534;DHT22;14973;51.460;7.008;2023-06-14T14:08:42;24.50;99.90
27534;DHT22;14973;51.460;7.008;2023-06-14T14:11:10;24.60;99.90
27534;DHT22;14973;51.460;7.008;2023-06-14T14:13:35;24.60;99.90
27534;DHT22;14973;51.460;7.008;2023-06-14T14:16:02;24.80;99.90
27534;DHT22;14973;51.460;7.008;2023-06-14T14:18:28;24.80;99.90
27534;DHT22;14973;51.460;7.008;2023-06-14T14:20:53;24.70;99.90
27534;DHT22;14973;51.460;7.008;2023-06-14T14:23:18;24.60;99.90
27534;DHT22;14973;51.460;7.008;2023-06-14T14:25:45;24.60;99.90
27534;DHT22;14973;51.460;7.008;2023-06-14T14:28:11;24.50;99.90
27534;DHT22;14973;51.460;7.008;2023-06-14T14:30:37;24.40;99.90
27534;DHT22;14973;51.460;7.008;2023-06-14T14:33:05;24.30;99.90
27534;DHT22;14973;51.460;7.008;2023-06-14T14:35:30;24.30;99.90
27534;DHT22;14973;51.460;7.008;2023-06-14T14:37:56;24.50;99.90
27534;DHT22;14973;51.460;7.008;2023-06-14T14:40:21;24.60;99.90
27534;DHT22;14973;51.460;7.008;2023-06-14T14:42:47;24.60;99.90
27534;DHT22;14973;51.460;7.008;2023-06-14T14:45:12;24.50;99.90
27534;DHT22;14973;51.460;7.008;2023-06-14T14:47:38;24.50;99.90
27534;DHT22;14973;51.460;7.008;2023-06-14T14:50:04;24.60;99.90
27534;DHT22;14973;51.460;7.008;2023-06-14T14:52:29;24.70;99.90
27534;DHT22;14973;51.460;7.008;2023-06-14T14:54:55;24.70;99.90
27534;DHT22;14973;51.460;7.008;2023-06-14T14:57:21;24.90;99.90
27534;DHT22;14973;51.460;7.008;2023-06-14T14:59:46;25.00;99.90
27534;DHT22;14973;51.460;7.008;2023-06-14T15:02:12;25.10;99.90
27534;DHT22;14973;51.460;7.008;2023-06-14T15:04:37;25.10;99.90
27534;DHT22;14973;51.460;7.008;2023-06-14T15:07:03;25.10;99.90
27534;DHT22;14973;51.460;7.008;2023-06-14T15:09:28;24.90;99.90
27534;DHT22;14973;51.460;7.008;2023-06-14T15:11:54;24.60;99.90
27534;DHT22;14973;51.460;7.008;2023-06-14T15:14:19;24.60;99.90
27534;DHT22;14973;51.460;7.008;2023-06-14T15:16:45;24.90;99.90
27534;DHT22;14973;51.460;7.008;2023-06-14T15:19:10;25.00;99.90
27534;DHT22;14973;51.460;7.008;2023-06-14T15:21:36;24.90;99.90
27534;DHT22;14973;51.460;7.008;2023-06-14T15:24:01;24.90;99.90
27534;DHT22;14973;51.460;7.008;2023-06-14T15:26:27;24.90;99.90
27534;DHT22;14973;51.460;7.008;2023-06-14T15:28:54;25.10;99.90
27534;DHT22;14973;51.460;7.008;2023-06-14T15:31:19;25.00;99.90
27534;DHT22;14973;51.460;7.008;2023-06-14T15:33:45;25.00;99.90
27534;DHT22;14973;51.460;7.008;2023-06-14T15:36:10;25.10;99.90
27534;DHT22;14973;51.460;7.008;2023-06-14T15:38:36;25.20;99.90
27534;DHT22;14973;51.460;7.008;2023-06-14T15:41:02;25.00;99.90
27534;DHT22;14973;51.460;7.008;2023-06-14T15:43:28;24.80;99.90